Triumph — WDC9555 — position and weather

sailwx.info

Track history (hours):
 
Tides and Currents Weather Stations Pressure Air Temp Water Temp Dewpoint Dewpoint Depression Visibility Wind Speed Wind Dir Waves Ship Positions

Triumph

Owner: WESTERN TOWBOAT CO, SEATTLE, WA. More information available from US FCC via Universal Licensing System and Coast Guard Vessel Documentation Center.

Last reported at 2017-May-26 06:02 UTC. Time now 2017-May-28 14:21 UTC.
Position N 47°39' W 122°22'.

Length 24 m; draft 3 m.

Type: Tow > 200 m length. MMSI: 367103880.

Date/timePositionNaut miles runAvg speedWind from/ knotsBaromVisibWave heightAir tempDewpointWater temp
2017-May-26 06:02N 47°39' W 122°22'0 0.2
2017-May-26 06:00N 47°39' W 122°22'1 1.8
2017-May-26 05:30N 47°40' W 122°23'2 3.6
2017-May-26 05:01N 47°41' W 122°25'4 7.2
2017-May-26 04:31N 47°37' W 122°24'4 7.3
2017-May-26 04:00N 47°34' W 122°21'1 1.7
2017-May-26 03:30N 47°33' W 122°21'2 4.1
2017-May-26 03:00N 47°35' W 122°22'3 5.6
2017-May-26 02:30N 47°37' W 122°25'3 6.9
2017-May-26 02:01N 47°40' W 122°28'3 6.7
2017-May-26 01:31N 47°43' W 122°28'4 7.0
2017-May-26 01:00N 47°46' W 122°27'4 7.5
2017-May-26 00:31N 47°50' W 122°28'4 8.1
2017-May-26 00:01N 47°54' W 122°30'5 9.5
2017-May-25 23:29N 47°58' W 122°35'13 8.5
2017-May-25 22:00N 48°09' W 122°44'7 9.6
2017-May-25 21:17N 48°15' W 122°48'4 8.8
2017-May-25 20:52N 48°18' W 122°47'3 8.7
2017-May-25 20:30N 48°21' W 122°46'4 7.8
2017-May-25 19:59N 48°25' W 122°45'4 8.2
2017-May-25 19:31N 48°29' W 122°45'4 8.1
2017-May-25 19:00N 48°33' W 122°45'4 8.7
2017-May-25 18:30N 48°38' W 122°44'4 8.5
2017-May-25 18:00N 48°42' W 122°45'5 8.5
2017-May-25 17:23N 48°46' W 122°50'5 9.5
2017-May-25 16:54N 48°49' W 122°56'4 9.3
2017-May-25 16:30N 48°51' W 123°00'4 8.2
2017-May-25 15:58N 48°53' W 123°06'5 8.4
2017-May-25 15:23N 48°57' W 123°11'3 8.3
2017-May-25 14:58N 48°59' W 123°15'7 7.3
2017-May-25 13:59N 49°06' W 123°19'3 6.7
2017-May-25 13:30N 49°07' W 123°15'3 6.9
2017-May-25 13:00N 49°07' W 123°10'4 7.2
2017-May-25 12:30N 49°07' W 123°05'2 5.0
2017-May-25 12:01N 49°09' W 123°02'0 0.1
2017-May-25 11:30N 49°09' W 123°02'0 0.0
2017-May-25 11:00N 49°09' W 123°02'0 0.0
2017-May-25 10:30N 49°09' W 123°02'0 0.0
2017-May-25 10:00N 49°09' W 123°02'0 0.0
2017-May-25 09:31N 49°09' W 123°02'0 0.0
2017-May-25 09:00N 49°09' W 123°02'0 0.0
2017-May-25 08:30N 49°09' W 123°02'0 0.0
2017-May-25 08:00N 49°09' W 123°02'0 0.0
2017-May-25 07:30N 49°09' W 123°02'0 0.0
2017-May-25 07:00N 49°09' W 123°02'0 0.0
2017-May-25 06:30N 49°09' W 123°02'0 0.0
2017-May-25 06:00N 49°09' W 123°02'0 0.0
2017-May-25 05:30N 49°09' W 123°02'0 0.0
2017-May-25 05:00N 49°09' W 123°02'0 0.0
2017-May-25 04:30N 49°09' W 123°02'0 0.0
2017-May-25 04:00N 49°09' W 123°02'0 0.0
2017-May-25 03:30N 49°09' W 123°02'0 0.0
2017-May-25 03:00N 49°09' W 123°02'0 0.0
2017-May-25 02:30N 49°09' W 123°02'0 0.0
2017-May-25 02:00N 49°09' W 123°02'0 0.0
2017-May-25 01:30N 49°09' W 123°02'0 0.0
2017-May-25 01:00N 49°09' W 123°02'0 0.0
2017-May-25 00:30N 49°09' W 123°02'0 0.0
2017-May-25 00:00N 49°09' W 123°02'0 0.0
2017-May-24 23:30N 49°09' W 123°02'0 0.0
2017-May-24 23:00N 49°09' W 123°02'0 0.0
2017-May-24 22:30N 49°09' W 123°02'0 0.0
2017-May-24 22:00N 49°09' W 123°02'0 0.0
2017-May-24 21:30N 49°09' W 123°02'0 0.0
2017-May-24 21:00N 49°09' W 123°02'0 0.2
2017-May-24 20:31N 49°09' W 123°02'2 4.9
2017-May-24 20:00N 49°07' W 123°05'3 5.1
2017-May-24 19:24N 49°07' W 123°09'2 4.7
2017-May-24 18:57N 49°08' W 123°12'2 5.1
2017-May-24 18:31N 49°07' W 123°16'2 4.3
2017-May-24 17:56N 49°06' W 123°19'3 5.9
2017-May-24 17:29N 49°07' W 123°23'3 6.3
2017-May-24 16:56N 49°04' W 123°20'4 7.4
2017-May-24 16:21N 49°01' W 123°15'4 7.5
2017-May-24 15:51N 48°59' W 123°11'2 7.0
2017-May-24 15:30N 48°57' W 123°08'20 7.6
2017-May-24 12:51N 48°44' W 122°45'3 8.2
2017-May-24 12:30N 48°42' W 122°43'4 8.9
2017-May-24 12:00N 48°37' W 122°44'5 9.1
2017-May-24 11:30N 48°33' W 122°45'5 9.8
2017-May-24 11:00N 48°28' W 122°44'6 8.9
2017-May-24 10:21N 48°22' W 122°44'3 8.6
2017-May-24 09:57N 48°19' W 122°46'4 8.2
2017-May-24 09:26N 48°15' W 122°48'7 5.1
2017-May-24 07:58N 48°08' W 122°43'7 2.7
2017-May-24 05:18N 48°02' W 122°39'1 4.5
2017-May-24 04:59N 48°00' W 122°39'2 0.3
2017-May-23 23:21N 48°01' W 122°36'3 8.0
2017-May-23 22:59N 47°58' W 122°34'4 8.2
2017-May-23 22:30N 47°56' W 122°30'4 8.2
2017-May-23 22:00N 47°52' W 122°28'4 8.9
2017-May-23 21:30N 47°48' W 122°26'4 8.3
2017-May-23 21:00N 47°44' W 122°26'4 8.2
2017-May-23 20:30N 47°39' W 122°27'4 8.4
2017-May-23 20:00N 47°36' W 122°23'3 6.3
2017-May-23 19:30N 47°34' W 122°21'1 1.2
2017-May-23 19:00N 47°34' W 122°21'0 0.0
2017-May-23 01:24N 47°34' W 122°21'1 3.1
2017-May-23 01:00N 47°33' W 122°20'3 6.9
2017-May-23 00:30N 47°36' W 122°23'4 8.2
2017-May-23 00:00N 47°35' W 122°29'3 6.2
2017-May-22 23:30N 47°36' W 122°33'4 8.2
2017-May-22 23:00N 47°33' W 122°38'2 3.3
2017-May-22 22:30N 47°32' W 122°40'0 0.0
2017-May-22 22:00N 47°32' W 122°40'0 0.1
2017-May-22 21:30N 47°32' W 122°40'0 0.1
2017-May-22 21:00N 47°32' W 122°40'4 7.0
2017-May-22 20:30N 47°34' W 122°36'4 8.6
2017-May-22 20:00N 47°34' W 122°29'510.2
2017-May-22 19:31N 47°35' W 122°22'1 2.6
2017-May-22 19:01N 47°34' W 122°21'  
2017-May-19 18:47N 47°34' W 122°21'0 1.3
2017-May-19 18:30N 47°34' W 122°21'1 1.2
2017-May-19 18:00N 47°35' W 122°22'1 1.1
2017-May-19 17:30N 47°35' W 122°21'0 0.0
2017-May-19 17:00N 47°35' W 122°21'0 0.0
2017-May-19 16:30N 47°35' W 122°21'0 0.0
2017-May-19 16:00N 47°35' W 122°21'0 0.0
2017-May-19 15:31N 47°35' W 122°21'1 0.1
2017-May-18 23:58N 47°34' W 122°21'1 1.9
2017-May-18 23:30N 47°33' W 122°21'1 1.3
2017-May-18 23:00N 47°34' W 122°21'2 3.9
2017-May-18 22:30N 47°36' W 122°22'4 7.2
2017-May-18 22:00N 47°38' W 122°26'3 6.4
2017-May-18 21:30N 47°41' W 122°28'3 6.5
2017-May-18 21:00N 47°44' W 122°27'3 6.9
2017-May-18 20:30N 47°48' W 122°27'4 7.4
2017-May-18 20:00N 47°51' W 122°29'3 6.7
2017-May-18 19:30N 47°55' W 122°30'3 6.2
2017-May-18 19:00N 47°57' W 122°34'12 6.4
2017-May-18 17:09N 48°07' W 122°42'3 6.6
2017-May-18 16:43N 48°09' W 122°45'1 6.5
2017-May-18 16:30N 48°10' W 122°46'4 7.3
2017-May-18 15:58N 48°14' W 122°48'4 7.4
2017-May-18 15:23N 48°18' W 122°47'3 7.0
2017-May-18 14:59N 48°21' W 122°46'7 7.0
2017-May-18 14:00N 48°28' W 122°45'4 7.8
2017-May-18 13:30N 48°32' W 122°45'4 8.0
2017-May-18 13:00N 48°36' W 122°46'4 7.9
2017-May-18 12:30N 48°39' W 122°44'4 7.4
2017-May-18 11:59N 48°43' W 122°45'4 7.7
2017-May-18 11:27N 48°46' W 122°50'5 7.6
2017-May-18 10:50N 48°49' W 122°56'3 6.9
2017-May-18 10:28N 48°50' W 122°59'3 6.8
2017-May-18 10:00N 48°52' W 123°03'4 7.5
2017-May-18 09:30N 48°54' W 123°07'7 7.4
2017-May-18 08:32N 48°59' W 123°16'1 7.3
2017-May-18 08:25N 48°60' W 123°17'5 6.6
2017-May-18 07:35N 49°05' W 123°20'1 6.7
2017-May-18 07:27N 49°05' W 123°19'3 6.1
2017-May-18 07:00N 49°07' W 123°16'3 5.3
2017-May-18 06:30N 49°07' W 123°12'3 6.1
2017-May-18 06:00N 49°07' W 123°07'3 6.2
2017-May-18 05:30N 49°08' W 123°03'1 2.5
2017-May-18 05:00N 49°09' W 123°02'0 0.1
2017-May-18 04:30N 49°09' W 123°02'0 0.0
2017-May-18 04:00N 49°09' W 123°02'0 0.0
2017-May-18 03:30N 49°09' W 123°02'0 0.0
2017-May-18 03:00N 49°09' W 123°02'0 0.0
2017-May-18 02:30N 49°09' W 123°02'0 0.0
2017-May-18 02:00N 49°09' W 123°02'0 0.0
2017-May-18 01:30N 49°09' W 123°02'0 0.0
2017-May-18 01:00N 49°09' W 123°02'0 0.0
2017-May-18 00:30N 49°09' W 123°02'0 0.0
2017-May-18 00:00N 49°09' W 123°02'0 0.0
2017-May-17 23:30N 49°09' W 123°02'0 0.0
2017-May-17 23:00N 49°09' W 123°02'0 0.0
2017-May-17 22:30N 49°09' W 123°02'0 0.0
2017-May-17 22:00N 49°09' W 123°02'0 0.0
2017-May-17 21:30N 49°09' W 123°02'0 0.0
2017-May-17 21:00N 49°09' W 123°02'0 0.0
2017-May-17 20:30N 49°09' W 123°02'0 0.0
2017-May-17 20:00N 49°09' W 123°02'0 0.0
2017-May-17 19:30N 49°09' W 123°02'0 0.0
2017-May-17 19:00N 49°09' W 123°02'0 0.0
2017-May-17 18:30N 49°09' W 123°02'0 0.0
2017-May-17 18:00N 49°09' W 123°02'0 0.0
2017-May-17 17:30N 49°09' W 123°02'0 0.0
2017-May-17 17:00N 49°09' W 123°02'0 0.0
2017-May-17 16:30N 49°09' W 123°02'0 0.0
2017-May-17 16:00N 49°09' W 123°02'0 0.0
2017-May-17 15:30N 49°09' W 123°02'0 0.0
2017-May-17 15:00N 49°09' W 123°02'0 0.0
2017-May-17 14:30N 49°09' W 123°02'0 0.0
2017-May-17 13:30N 49°09' W 123°02'0 0.0
2017-May-17 13:00N 49°09' W 123°02'0 0.0
2017-May-17 12:30N 49°09' W 123°02'0 0.0
2017-May-17 12:00N 49°09' W 123°02'0 0.0
2017-May-17 11:30N 49°09' W 123°02'0 0.0
2017-May-17 11:00N 49°09' W 123°02'0 0.0
2017-May-17 10:30N 49°09' W 123°02'0 0.0
2017-May-17 10:00N 49°09' W 123°02'0 0.0
2017-May-17 09:30N 49°09' W 123°02'1 1.3
2017-May-17 09:00N 49°08' W 123°03'3 6.5
2017-May-17 08:30N 49°07' W 123°07'3 6.1
2017-May-17 08:00N 49°07' W 123°11'3 6.2
2017-May-17 07:27N 49°07' W 123°17'2 5.3
2017-May-17 07:00N 49°05' W 123°19'4 8.5
2017-May-17 06:30N 49°02' W 123°16'6 9.6
2017-May-17 05:53N 48°58' W 123°09'2010.1
2017-May-17 03:53N 48°44' W 122°45'411.4
2017-May-17 03:30N 48°40' W 122°43'612.1
2017-May-17 03:00N 48°34' W 122°45'611.9
2017-May-17 02:30N 48°28' W 122°44'910.1
2017-May-17 01:34N 48°19' W 122°46'1 9.3
2017-May-17 01:29N 48°18' W 122°46'4 8.8
2017-May-17 01:00N 48°14' W 122°48'14 7.8
2017-May-16 23:09N 48°02' W 122°37'2 9.3
2017-May-16 22:57N 48°00' W 122°36'4 9.4
2017-May-16 22:30N 47°57' W 122°32'5 9.6
2017-May-16 22:00N 47°53' W 122°28'510.2
2017-May-16 21:30N 47°48' W 122°26'5 9.9
2017-May-16 21:00N 47°43' W 122°26'5 9.3
2017-May-16 20:30N 47°38' W 122°26'5 9.2
2017-May-16 20:00N 47°35' W 122°22'2 3.3
2017-May-16 19:30N 47°33' W 122°21'1 1.7
2017-May-16 19:01N 47°34' W 122°21'  
Track history (hours):
 
Tides and Currents Weather Stations Pressure Air Temp Water Temp Dewpoint Dewpoint Depression Visibility Wind Speed Wind Dir Waves Ship Positions

Triumph

Owner: WESTERN TOWBOAT CO, SEATTLE, WA. More information available from US FCC via Universal Licensing System and Coast Guard Vessel Documentation Center.

Last reported at 2017-May-26 06:02 UTC. Time now 2017-May-28 14:21 UTC.
Position N 47°39' W 122°22'.

Length 24 m; draft 3 m.

Type: Tow > 200 m length. MMSI: 367103880.

Date/timePositionNaut miles runAvg speedWind from/ knotsBaromVisibWave heightAir tempDewpointWater temp
2017-May-26 06:02N 47°39' W 122°22'0 0.2
2017-May-26 06:00N 47°39' W 122°22'1 1.8
2017-May-26 05:30N 47°40' W 122°23'2 3.6
2017-May-26 05:01N 47°41' W 122°25'4 7.2
2017-May-26 04:31N 47°37' W 122°24'4 7.3
2017-May-26 04:00N 47°34' W 122°21'1 1.7
2017-May-26 03:30N 47°33' W 122°21'2 4.1
2017-May-26 03:00N 47°35' W 122°22'3 5.6
2017-May-26 02:30N 47°37' W 122°25'3 6.9
2017-May-26 02:01N 47°40' W 122°28'3 6.7
2017-May-26 01:31N 47°43' W 122°28'4 7.0
2017-May-26 01:00N 47°46' W 122°27'4 7.5
2017-May-26 00:31N 47°50' W 122°28'4 8.1
2017-May-26 00:01N 47°54' W 122°30'5 9.5
2017-May-25 23:29N 47°58' W 122°35'13 8.5
2017-May-25 22:00N 48°09' W 122°44'7 9.6
2017-May-25 21:17N 48°15' W 122°48'4 8.8
2017-May-25 20:52N 48°18' W 122°47'3 8.7
2017-May-25 20:30N 48°21' W 122°46'4 7.8
2017-May-25 19:59N 48°25' W 122°45'4 8.2
2017-May-25 19:31N 48°29' W 122°45'4 8.1
2017-May-25 19:00N 48°33' W 122°45'4 8.7
2017-May-25 18:30N 48°38' W 122°44'4 8.5
2017-May-25 18:00N 48°42' W 122°45'5 8.5
2017-May-25 17:23N 48°46' W 122°50'5 9.5
2017-May-25 16:54N 48°49' W 122°56'4 9.3
2017-May-25 16:30N 48°51' W 123°00'4 8.2
2017-May-25 15:58N 48°53' W 123°06'5 8.4
2017-May-25 15:23N 48°57' W 123°11'3 8.3
2017-May-25 14:58N 48°59' W 123°15'7 7.3
2017-May-25 13:59N 49°06' W 123°19'3 6.7
2017-May-25 13:30N 49°07' W 123°15'3 6.9
2017-May-25 13:00N 49°07' W 123°10'4 7.2
2017-May-25 12:30N 49°07' W 123°05'2 5.0
2017-May-25 12:01N 49°09' W 123°02'0 0.1
2017-May-25 11:30N 49°09' W 123°02'0 0.0
2017-May-25 11:00N 49°09' W 123°02'0 0.0
2017-May-25 10:30N 49°09' W 123°02'0 0.0
2017-May-25 10:00N 49°09' W 123°02'0 0.0
2017-May-25 09:31N 49°09' W 123°02'0 0.0
2017-May-25 09:00N 49°09' W 123°02'0 0.0
2017-May-25 08:30N 49°09' W 123°02'0 0.0
2017-May-25 08:00N 49°09' W 123°02'0 0.0
2017-May-25 07:30N 49°09' W 123°02'0 0.0
2017-May-25 07:00N 49°09' W 123°02'0 0.0
2017-May-25 06:30N 49°09' W 123°02'0 0.0
2017-May-25 06:00N 49°09' W 123°02'0 0.0
2017-May-25 05:30N 49°09' W 123°02'0 0.0
2017-May-25 05:00N 49°09' W 123°02'0 0.0
2017-May-25 04:30N 49°09' W 123°02'0 0.0
2017-May-25 04:00N 49°09' W 123°02'0 0.0
2017-May-25 03:30N 49°09' W 123°02'0 0.0
2017-May-25 03:00N 49°09' W 123°02'0 0.0
2017-May-25 02:30N 49°09' W 123°02'0 0.0
2017-May-25 02:00N 49°09' W 123°02'0 0.0
2017-May-25 01:30N 49°09' W 123°02'0 0.0
2017-May-25 01:00N 49°09' W 123°02'0 0.0
2017-May-25 00:30N 49°09' W 123°02'0 0.0
2017-May-25 00:00N 49°09' W 123°02'0 0.0
2017-May-24 23:30N 49°09' W 123°02'0 0.0
2017-May-24 23:00N 49°09' W 123°02'0 0.0
2017-May-24 22:30N 49°09' W 123°02'0 0.0
2017-May-24 22:00N 49°09' W 123°02'0 0.0
2017-May-24 21:30N 49°09' W 123°02'0 0.0
2017-May-24 21:00N 49°09' W 123°02'0 0.2
2017-May-24 20:31N 49°09' W 123°02'2 4.9
2017-May-24 20:00N 49°07' W 123°05'3 5.1
2017-May-24 19:24N 49°07' W 123°09'2 4.7
2017-May-24 18:57N 49°08' W 123°12'2 5.1
2017-May-24 18:31N 49°07' W 123°16'2 4.3
2017-May-24 17:56N 49°06' W 123°19'3 5.9
2017-May-24 17:29N 49°07' W 123°23'3 6.3
2017-May-24 16:56N 49°04' W 123°20'4 7.4
2017-May-24 16:21N 49°01' W 123°15'4 7.5
2017-May-24 15:51N 48°59' W 123°11'2 7.0
2017-May-24 15:30N 48°57' W 123°08'20 7.6
2017-May-24 12:51N 48°44' W 122°45'3 8.2
2017-May-24 12:30N 48°42' W 122°43'4 8.9
2017-May-24 12:00N 48°37' W 122°44'5 9.1
2017-May-24 11:30N 48°33' W 122°45'5 9.8
2017-May-24 11:00N 48°28' W 122°44'6 8.9
2017-May-24 10:21N 48°22' W 122°44'3 8.6
2017-May-24 09:57N 48°19' W 122°46'4 8.2
2017-May-24 09:26N 48°15' W 122°48'7 5.1
2017-May-24 07:58N 48°08' W 122°43'7 2.7
2017-May-24 05:18N 48°02' W 122°39'1 4.5
2017-May-24 04:59N 48°00' W 122°39'2 0.3
2017-May-23 23:21N 48°01' W 122°36'3 8.0
2017-May-23 22:59N 47°58' W 122°34'4 8.2
2017-May-23 22:30N 47°56' W 122°30'4 8.2
2017-May-23 22:00N 47°52' W 122°28'4 8.9
2017-May-23 21:30N 47°48' W 122°26'4 8.3
2017-May-23 21:00N 47°44' W 122°26'4 8.2
2017-May-23 20:30N 47°39' W 122°27'4 8.4
2017-May-23 20:00N 47°36' W 122°23'3 6.3
2017-May-23 19:30N 47°34' W 122°21'1 1.2
2017-May-23 19:00N 47°34' W 122°21'0 0.0
2017-May-23 01:24N 47°34' W 122°21'1 3.1
2017-May-23 01:00N 47°33' W 122°20'3 6.9
2017-May-23 00:30N 47°36' W 122°23'4 8.2
2017-May-23 00:00N 47°35' W 122°29'3 6.2
2017-May-22 23:30N 47°36' W 122°33'4 8.2
2017-May-22 23:00N 47°33' W 122°38'2 3.3
2017-May-22 22:30N 47°32' W 122°40'0 0.0
2017-May-22 22:00N 47°32' W 122°40'0 0.1
2017-May-22 21:30N 47°32' W 122°40'0 0.1
2017-May-22 21:00N 47°32' W 122°40'4 7.0
2017-May-22 20:30N 47°34' W 122°36'4 8.6
2017-May-22 20:00N 47°34' W 122°29'510.2
2017-May-22 19:31N 47°35' W 122°22'1 2.6
2017-May-22 19:01N 47°34' W 122°21'  
2017-May-19 18:47N 47°34' W 122°21'0 1.3
2017-May-19 18:30N 47°34' W 122°21'1 1.2
2017-May-19 18:00N 47°35' W 122°22'1 1.1
2017-May-19 17:30N 47°35' W 122°21'0 0.0
2017-May-19 17:00N 47°35' W 122°21'0 0.0
2017-May-19 16:30N 47°35' W 122°21'0 0.0
2017-May-19 16:00N 47°35' W 122°21'0 0.0
2017-May-19 15:31N 47°35' W 122°21'1 0.1
2017-May-18 23:58N 47°34' W 122°21'1 1.9
2017-May-18 23:30N 47°33' W 122°21'1 1.3
2017-May-18 23:00N 47°34' W 122°21'2 3.9
2017-May-18 22:30N 47°36' W 122°22'4 7.2
2017-May-18 22:00N 47°38' W 122°26'3 6.4
2017-May-18 21:30N 47°41' W 122°28'3 6.5
2017-May-18 21:00N 47°44' W 122°27'3 6.9
2017-May-18 20:30N 47°48' W 122°27'4 7.4
2017-May-18 20:00N 47°51' W 122°29'3 6.7
2017-May-18 19:30N 47°55' W 122°30'3 6.2
2017-May-18 19:00N 47°57' W 122°34'12 6.4
2017-May-18 17:09N 48°07' W 122°42'3 6.6
2017-May-18 16:43N 48°09' W 122°45'1 6.5
2017-May-18 16:30N 48°10' W 122°46'4 7.3
2017-May-18 15:58N 48°14' W 122°48'4 7.4
2017-May-18 15:23N 48°18' W 122°47'3 7.0
2017-May-18 14:59N 48°21' W 122°46'7 7.0
2017-May-18 14:00N 48°28' W 122°45'4 7.8
2017-May-18 13:30N 48°32' W 122°45'4 8.0
2017-May-18 13:00N 48°36' W 122°46'4 7.9
2017-May-18 12:30N 48°39' W 122°44'4 7.4
2017-May-18 11:59N 48°43' W 122°45'4 7.7
2017-May-18 11:27N 48°46' W 122°50'5 7.6
2017-May-18 10:50N 48°49' W 122°56'3 6.9
2017-May-18 10:28N 48°50' W 122°59'3 6.8
2017-May-18 10:00N 48°52' W 123°03'4 7.5
2017-May-18 09:30N 48°54' W 123°07'7 7.4
2017-May-18 08:32N 48°59' W 123°16'1 7.3
2017-May-18 08:25N 48°60' W 123°17'5 6.6
2017-May-18 07:35N 49°05' W 123°20'1 6.7
2017-May-18 07:27N 49°05' W 123°19'3 6.1
2017-May-18 07:00N 49°07' W 123°16'3 5.3
2017-May-18 06:30N 49°07' W 123°12'3 6.1
2017-May-18 06:00N 49°07' W 123°07'3 6.2
2017-May-18 05:30N 49°08' W 123°03'1 2.5
2017-May-18 05:00N 49°09' W 123°02'0 0.1
2017-May-18 04:30N 49°09' W 123°02'0 0.0
2017-May-18 04:00N 49°09' W 123°02'0 0.0
2017-May-18 03:30N 49°09' W 123°02'0 0.0
2017-May-18 03:00N 49°09' W 123°02'0 0.0
2017-May-18 02:30N 49°09' W 123°02'0 0.0
2017-May-18 02:00N 49°09' W 123°02'0 0.0
2017-May-18 01:30N 49°09' W 123°02'0 0.0
2017-May-18 01:00N 49°09' W 123°02'0 0.0
2017-May-18 00:30N 49°09' W 123°02'0 0.0
2017-May-18 00:00N 49°09' W 123°02'0 0.0
2017-May-17 23:30N 49°09' W 123°02'0 0.0
2017-May-17 23:00N 49°09' W 123°02'0 0.0
2017-May-17 22:30N 49°09' W 123°02'0 0.0
2017-May-17 22:00N 49°09' W 123°02'0 0.0
2017-May-17 21:30N 49°09' W 123°02'0 0.0
2017-May-17 21:00N 49°09' W 123°02'0 0.0
2017-May-17 20:30N 49°09' W 123°02'0 0.0
2017-May-17 20:00N 49°09' W 123°02'0 0.0
2017-May-17 19:30N 49°09' W 123°02'0 0.0
2017-May-17 19:00N 49°09' W 123°02'0 0.0
2017-May-17 18:30N 49°09' W 123°02'0 0.0
2017-May-17 18:00N 49°09' W 123°02'0 0.0
2017-May-17 17:30N 49°09' W 123°02'0 0.0
2017-May-17 17:00N 49°09' W 123°02'0 0.0
2017-May-17 16:30N 49°09' W 123°02'0 0.0
2017-May-17 16:00N 49°09' W 123°02'0 0.0
2017-May-17 15:30N 49°09' W 123°02'0 0.0
2017-May-17 15:00N 49°09' W 123°02'0 0.0
2017-May-17 14:30N 49°09' W 123°02'0 0.0
2017-May-17 13:30N 49°09' W 123°02'0 0.0
2017-May-17 13:00N 49°09' W 123°02'0 0.0
2017-May-17 12:30N 49°09' W 123°02'0 0.0
2017-May-17 12:00N 49°09' W 123°02'0 0.0
2017-May-17 11:30N 49°09' W 123°02'0 0.0
2017-May-17 11:00N 49°09' W 123°02'0 0.0
2017-May-17 10:30N 49°09' W 123°02'0 0.0
2017-May-17 10:00N 49°09' W 123°02'0 0.0
2017-May-17 09:30N 49°09' W 123°02'1 1.3
2017-May-17 09:00N 49°08' W 123°03'3 6.5
2017-May-17 08:30N 49°07' W 123°07'3 6.1
2017-May-17 08:00N 49°07' W 123°11'3 6.2
2017-May-17 07:27N 49°07' W 123°17'2 5.3
2017-May-17 07:00N 49°05' W 123°19'4 8.5
2017-May-17 06:30N 49°02' W 123°16'6 9.6
2017-May-17 05:53N 48°58' W 123°09'2010.1
2017-May-17 03:53N 48°44' W 122°45'411.4
2017-May-17 03:30N 48°40' W 122°43'612.1
2017-May-17 03:00N 48°34' W 122°45'611.9
2017-May-17 02:30N 48°28' W 122°44'910.1
2017-May-17 01:34N 48°19' W 122°46'1 9.3
2017-May-17 01:29N 48°18' W 122°46'4 8.8
2017-May-17 01:00N 48°14' W 122°48'14 7.8
2017-May-16 23:09N 48°02' W 122°37'2 9.3
2017-May-16 22:57N 48°00' W 122°36'4 9.4
2017-May-16 22:30N 47°57' W 122°32'5 9.6
2017-May-16 22:00N 47°53' W 122°28'510.2
2017-May-16 21:30N 47°48' W 122°26'5 9.9
2017-May-16 21:00N 47°43' W 122°26'5 9.3
2017-May-16 20:30N 47°38' W 122°26'5 9.2
2017-May-16 20:00N 47°35' W 122°22'2 3.3
2017-May-16 19:30N 47°33' W 122°21'1 1.7
2017-May-16 19:01N 47°34' W 122°21'  

Dump ship's entire track history